**Search for your results by entering your last name OR bib number OR search by age group to compare your stats with others
Individual Search
 
Bib:
Last Name:
All Participants Search
 
Top Ten Women
PlaceNameTimePace
1.Anna Schreiner20:12.656:28/M
2.Andrea Gibson21:45.016:58/M
3.Taylor Norton21:48.206:59/M
4.Myrdin Thompson22:20.887:09/M
5.La'Reshia Poe22:22.787:10/M
6.Jenniffer Burton22:40.647:16/M
7.Ann Wood22:45.597:18/M
8.Ashley Meadows23:00.517:22/M
9.Holly Horan23:10.237:26/M
10.Bridget House23:11.527:26/M
Top Ten Men
PlaceNameTimePace
1.Mike Horan16:44.715:22/M
2.Mike Deren17:07.545:29/M
3.Brian Ruggles17:42.045:40/M
4.Matt Petrik18:03.605:47/M
5.Ben Wolff18:13.795:50/M
6.Jared Randall18:15.845:51/M
7.Andy Fenton18:45.906:01/M
8.Thomas Lindemann19:19.726:11/M
9.Greg Ridlington19:20.106:12/M
10.Jarred Elzy19:32.476:16/M
Contact us for results help

Gallery of Events

Contact Us

Address:
172 Trademark Drive
Buda, Texas 78610

Phone:
(512) 386 - 7966

Email:
info@cadencesports.com